sensor_id;sensor_type;location;lat;lon;timestamp;P1;durP1;ratioP1;P2;durP2;ratioP2
62848;SDS011;48941;49.516;8.286;2023-04-24T00:00:12;1.65;;;1.42;;
62848;SDS011;48941;49.516;8.286;2023-04-24T00:02:42;3.38;;;1.20;;
62848;SDS011;48941;49.516;8.286;2023-04-24T00:05:13;1.80;;;1.50;;
62848;SDS011;48941;49.516;8.286;2023-04-24T00:07:43;4.60;;;1.50;;
62848;SDS011;48941;49.516;8.286;2023-04-24T00:10:12;1.67;;;1.58;;
62848;SDS011;48941;49.516;8.286;2023-04-24T00:12:40;3.35;;;1.70;;
62848;SDS011;48941;49.516;8.286;2023-04-24T00:15:08;1.67;;;1.33;;
62848;SDS011;48941;49.516;8.286;2023-04-24T00:17:36;2.33;;;1.50;;
62848;SDS011;48941;49.516;8.286;2023-04-24T00:20:05;3.08;;;1.63;;
62848;SDS011;48941;49.516;8.286;2023-04-24T00:22:33;6.38;;;1.63;;
62848;SDS011;48941;49.516;8.286;2023-04-24T00:25:02;4.55;;;1.48;;
62848;SDS011;48941;49.516;8.286;2023-04-24T00:27:31;2.15;;;1.33;;
62848;SDS011;48941;49.516;8.286;2023-04-24T00:30:01;2.47;;;1.60;;
62848;SDS011;48941;49.516;8.286;2023-04-24T00:32:29;1.50;;;1.08;;
62848;SDS011;48941;49.516;8.286;2023-04-24T00:34:57;1.88;;;1.33;;
62848;SDS011;48941;49.516;8.286;2023-04-24T00:37:25;3.05;;;1.50;;
62848;SDS011;48941;49.516;8.286;2023-04-24T00:39:52;2.42;;;1.58;;
62848;SDS011;48941;49.516;8.286;2023-04-24T00:42:21;1.45;;;1.35;;
62848;SDS011;48941;49.516;8.286;2023-04-24T00:44:50;5.68;;;1.40;;
62848;SDS011;48941;49.516;8.286;2023-04-24T00:47:18;3.05;;;1.17;;
62848;SDS011;48941;49.516;8.286;2023-04-24T00:49:46;2.13;;;1.17;;
62848;SDS011;48941;49.516;8.286;2023-04-24T00:52:14;3.03;;;1.58;;
62848;SDS011;48941;49.516;8.286;2023-04-24T00:54:43;2.67;;;1.30;;
62848;SDS011;48941;49.516;8.286;2023-04-24T00:57:11;3.55;;;1.60;;
62848;SDS011;48941;49.516;8.286;2023-04-24T00:59:41;2.08;;;1.42;;
62848;SDS011;48941;49.516;8.286;2023-04-24T01:02:10;1.92;;;1.38;;
62848;SDS011;48941;49.516;8.286;2023-04-24T01:04:39;3.97;;;1.73;;
62848;SDS011;48941;49.516;8.286;2023-04-24T01:07:06;2.70;;;1.45;;
62848;SDS011;48941;49.516;8.286;2023-04-24T01:09:37;3.60;;;1.40;;
62848;SDS011;48941;49.516;8.286;2023-04-24T01:12:08;2.50;;;1.23;;
62848;SDS011;48941;49.516;8.286;2023-04-24T01:14:36;2.25;;;1.30;;
62848;SDS011;48941;49.516;8.286;2023-04-24T01:17:05;2.85;;;1.40;;
62848;SDS011;48941;49.516;8.286;2023-04-24T01:19:35;2.10;;;1.77;;
62848;SDS011;48941;49.516;8.286;2023-04-24T01:24:36;3.88;;;1.38;;
62848;SDS011;48941;49.516;8.286;2023-04-24T01:27:04;1.40;;;1.30;;
62848;SDS011;48941;49.516;8.286;2023-04-24T01:29:33;3.30;;;1.42;;
62848;SDS011;48941;49.516;8.286;2023-04-24T01:32:01;3.72;;;1.58;;
62848;SDS011;48941;49.516;8.286;2023-04-24T01:34:30;2.97;;;1.40;;
62848;SDS011;48941;49.516;8.286;2023-04-24T01:36:58;1.75;;;1.20;;
62848;SDS011;48941;49.516;8.286;2023-04-24T01:39:27;3.03;;;1.33;;
62848;SDS011;48941;49.516;8.286;2023-04-24T01:41:55;1.70;;;1.27;;
62848;SDS011;48941;49.516;8.286;2023-04-24T01:44:23;1.88;;;1.40;;
62848;SDS011;48941;49.516;8.286;2023-04-24T01:46:51;2.88;;;1.50;;
62848;SDS011;48941;49.516;8.286;2023-04-24T01:49:20;4.78;;;1.40;;
62848;SDS011;48941;49.516;8.286;2023-04-24T01:51:48;4.50;;;1.40;;
62848;SDS011;48941;49.516;8.286;2023-04-24T01:54:16;2.88;;;1.40;;
62848;SDS011;48941;49.516;8.286;2023-04-24T01:56:45;2.22;;;1.30;;
62848;SDS011;48941;49.516;8.286;2023-04-24T01:59:13;4.00;;;1.30;;
62848;SDS011;48941;49.516;8.286;2023-04-24T02:01:44;3.33;;;1.35;;
62848;SDS011;48941;49.516;8.286;2023-04-24T02:04:11;2.15;;;1.40;;
62848;SDS011;48941;49.516;8.286;2023-04-24T02:06:40;2.35;;;1.50;;
62848;SDS011;48941;49.516;8.286;2023-04-24T02:09:08;5.47;;;1.60;;
62848;SDS011;48941;49.516;8.286;2023-04-24T02:11:36;6.30;;;1.73;;
62848;SDS011;48941;49.516;8.286;2023-04-24T02:14:06;3.10;;;1.60;;
62848;SDS011;48941;49.516;8.286;2023-04-24T02:16:33;1.90;;;1.55;;
62848;SDS011;48941;49.516;8.286;2023-04-24T02:19:02;3.95;;;2.00;;
62848;SDS011;48941;49.516;8.286;2023-04-24T02:21:30;3.35;;;2.10;;
62848;SDS011;48941;49.516;8.286;2023-04-24T02:23:59;3.70;;;1.70;;
62848;SDS011;48941;49.516;8.286;2023-04-24T02:26:27;3.15;;;1.73;;
62848;SDS011;48941;49.516;8.286;2023-04-24T02:28:55;1.95;;;1.73;;
62848;SDS011;48941;49.516;8.286;2023-04-24T02:31:24;3.35;;;1.70;;
62848;SDS011;48941;49.516;8.286;2023-04-24T02:33:52;2.45;;;1.90;;
62848;SDS011;48941;49.516;8.286;2023-04-24T02:36:19;2.50;;;1.80;;
62848;SDS011;48941;49.516;8.286;2023-04-24T02:38:47;4.03;;;1.90;;
62848;SDS011;48941;49.516;8.286;2023-04-24T02:41:15;2.60;;;1.92;;
62848;SDS011;48941;49.516;8.286;2023-04-24T02:43:43;4.10;;;1.90;;
62848;SDS011;48941;49.516;8.286;2023-04-24T02:46:10;4.53;;;1.58;;
62848;SDS011;48941;49.516;8.286;2023-04-24T02:48:40;1.40;;;1.30;;
62848;SDS011;48941;49.516;8.286;2023-04-24T02:51:07;1.20;;;1.20;;
62848;SDS011;48941;49.516;8.286;2023-04-24T02:53:36;3.13;;;1.40;;
62848;SDS011;48941;49.516;8.286;2023-04-24T02:56:03;5.63;;;1.90;;
62848;SDS011;48941;49.516;8.286;2023-04-24T02:58:31;1.80;;;1.70;;
62848;SDS011;48941;49.516;8.286;2023-04-24T03:00:59;2.15;;;1.65;;
62848;SDS011;48941;49.516;8.286;2023-04-24T03:03:27;3.15;;;1.80;;
62848;SDS011;48941;49.516;8.286;2023-04-24T03:05:56;2.13;;;1.92;;
62848;SDS011;48941;49.516;8.286;2023-04-24T03:08:24;2.40;;;2.00;;
62848;SDS011;48941;49.516;8.286;2023-04-24T03:10:52;1.98;;;1.85;;
62848;SDS011;48941;49.516;8.286;2023-04-24T03:13:20;2.05;;;1.85;;
62848;SDS011;48941;49.516;8.286;2023-04-24T03:15:47;2.85;;;1.70;;
62848;SDS011;48941;49.516;8.286;2023-04-24T03:18:15;1.80;;;1.70;;
62848;SDS011;48941;49.516;8.286;2023-04-24T03:20:45;2.53;;;1.73;;
62848;SDS011;48941;49.516;8.286;2023-04-24T03:23:14;2.17;;;1.90;;
62848;SDS011;48941;49.516;8.286;2023-04-24T03:25:42;3.03;;;1.90;;
62848;SDS011;48941;49.516;8.286;2023-04-24T03:28:10;3.85;;;1.90;;
62848;SDS011;48941;49.516;8.286;2023-04-24T03:30:37;2.70;;;1.90;;
62848;SDS011;48941;49.516;8.286;2023-04-24T03:33:05;2.13;;;1.95;;
62848;SDS011;48941;49.516;8.286;2023-04-24T03:35:33;2.13;;;1.80;;
62848;SDS011;48941;49.516;8.286;2023-04-24T03:38:01;5.60;;;1.95;;
62848;SDS011;48941;49.516;8.286;2023-04-24T03:40:31;3.13;;;1.90;;
62848;SDS011;48941;49.516;8.286;2023-04-24T03:42:59;2.10;;;1.90;;
62848;SDS011;48941;49.516;8.286;2023-04-24T03:45:27;1.92;;;1.73;;
62848;SDS011;48941;49.516;8.286;2023-04-24T03:47:55;1.77;;;1.67;;
62848;SDS011;48941;49.516;8.286;2023-04-24T03:50:23;2.97;;;2.10;;
62848;SDS011;48941;49.516;8.286;2023-04-24T03:52:52;3.72;;;2.00;;
62848;SDS011;48941;49.516;8.286;2023-04-24T03:55:20;2.55;;;2.20;;
62848;SDS011;48941;49.516;8.286;2023-04-24T03:57:49;8.13;;;2.00;;
62848;SDS011;48941;49.516;8.286;2023-04-24T04:00:17;4.78;;;2.20;;
62848;SDS011;48941;49.516;8.286;2023-04-24T04:02:44;3.28;;;2.40;;
62848;SDS011;48941;49.516;8.286;2023-04-24T04:05:12;2.67;;;2.30;;
62848;SDS011;48941;49.516;8.286;2023-04-24T04:07:40;2.85;;;2.25;;
62848;SDS011;48941;49.516;8.286;2023-04-24T04:10:08;3.67;;;2.40;;
62848;SDS011;48941;49.516;8.286;2023-04-24T04:12:36;2.95;;;2.58;;
62848;SDS011;48941;49.516;8.286;2023-04-24T04:15:05;9.40;;;2.83;;
62848;SDS011;48941;49.516;8.286;2023-04-24T04:17:34;5.28;;;2.78;;
62848;SDS011;48941;49.516;8.286;2023-04-24T04:20:02;3.95;;;2.95;;
62848;SDS011;48941;49.516;8.286;2023-04-24T04:22:34;3.90;;;3.08;;
62848;SDS011;48941;49.516;8.286;2023-04-24T04:25:02;4.93;;;3.22;;
62848;SDS011;48941;49.516;8.286;2023-04-24T04:27:31;4.90;;;3.38;;
62848;SDS011;48941;49.516;8.286;2023-04-24T04:29:59;6.30;;;3.13;;
62848;SDS011;48941;49.516;8.286;2023-04-24T04:32:28;4.60;;;3.28;;
62848;SDS011;48941;49.516;8.286;2023-04-24T04:34:56;4.32;;;3.03;;
62848;SDS011;48941;49.516;8.286;2023-04-24T04:37:24;3.22;;;2.78;;
62848;SDS011;48941;49.516;8.286;2023-04-24T04:39:52;6.35;;;2.95;;
62848;SDS011;48941;49.516;8.286;2023-04-24T04:42:20;4.40;;;2.92;;
62848;SDS011;48941;49.516;8.286;2023-04-24T04:44:49;3.60;;;3.20;;
62848;SDS011;48941;49.516;8.286;2023-04-24T04:47:17;4.47;;;3.55;;
62848;SDS011;48941;49.516;8.286;2023-04-24T04:49:47;4.88;;;3.80;;
62848;SDS011;48941;49.516;8.286;2023-04-24T04:52:14;5.30;;;3.72;;
62848;SDS011;48941;49.516;8.286;2023-04-24T04:54:43;4.00;;;2.95;;
62848;SDS011;48941;49.516;8.286;2023-04-24T04:57:12;6.53;;;3.10;;
62848;SDS011;48941;49.516;8.286;2023-04-24T04:59:40;5.15;;;2.90;;
62848;SDS011;48941;49.516;8.286;2023-04-24T05:02:08;3.47;;;3.17;;
62848;SDS011;48941;49.516;8.286;2023-04-24T05:04:36;5.18;;;3.10;;
62848;SDS011;48941;49.516;8.286;2023-04-24T05:07:06;3.75;;;3.17;;
62848;SDS011;48941;49.516;8.286;2023-04-24T05:09:33;5.85;;;2.95;;
62848;SDS011;48941;49.516;8.286;2023-04-24T05:12:01;3.20;;;2.90;;
62848;SDS011;48941;49.516;8.286;2023-04-24T05:14:29;5.85;;;3.38;;
62848;SDS011;48941;49.516;8.286;2023-04-24T05:16:57;3.65;;;2.80;;
62848;SDS011;48941;49.516;8.286;2023-04-24T05:19:26;5.18;;;3.28;;
62848;SDS011;48941;49.516;8.286;2023-04-24T05:21:54;6.00;;;3.55;;
62848;SDS011;48941;49.516;8.286;2023-04-24T05:24:23;5.15;;;3.10;;
62848;SDS011;48941;49.516;8.286;2023-04-24T05:26:51;6.18;;;4.32;;
62848;SDS011;48941;49.516;8.286;2023-04-24T05:29:18;6.90;;;3.95;;
62848;SDS011;48941;49.516;8.286;2023-04-24T05:31:46;5.43;;;3.97;;
62848;SDS011;48941;49.516;8.286;2023-04-24T05:34:14;6.20;;;3.63;;
62848;SDS011;48941;49.516;8.286;2023-04-24T05:36:43;4.63;;;3.45;;
62848;SDS011;48941;49.516;8.286;2023-04-24T05:39:10;6.72;;;3.90;;
62848;SDS011;48941;49.516;8.286;2023-04-24T05:41:39;7.15;;;4.15;;
62848;SDS011;48941;49.516;8.286;2023-04-24T05:44:07;5.90;;;3.70;;
62848;SDS011;48941;49.516;8.286;2023-04-24T05:46:35;7.30;;;4.10;;
62848;SDS011;48941;49.516;8.286;2023-04-24T05:49:03;5.22;;;3.78;;
62848;SDS011;48941;49.516;8.286;2023-04-24T05:51:31;5.50;;;3.85;;
62848;SDS011;48941;49.516;8.286;2023-04-24T05:53:59;5.50;;;3.88;;
62848;SDS011;48941;49.516;8.286;2023-04-24T05:56:27;7.80;;;3.65;;
62848;SDS011;48941;49.516;8.286;2023-04-24T05:58:56;5.45;;;3.40;;
62848;SDS011;48941;49.516;8.286;2023-04-24T06:01:24;8.15;;;3.70;;
62848;SDS011;48941;49.516;8.286;2023-04-24T06:03:52;10.93;;;4.18;;
62848;SDS011;48941;49.516;8.286;2023-04-24T06:06:20;7.88;;;3.65;;
62848;SDS011;48941;49.516;8.286;2023-04-24T06:08:48;27.45;;;7.53;;
62848;SDS011;48941;49.516;8.286;2023-04-24T06:11:15;7.30;;;3.83;;
62848;SDS011;48941;49.516;8.286;2023-04-24T06:13:43;4.80;;;3.65;;
62848;SDS011;48941;49.516;8.286;2023-04-24T06:16:13;9.00;;;3.97;;
62848;SDS011;48941;49.516;8.286;2023-04-24T06:18:41;10.52;;;4.10;;
62848;SDS011;48941;49.516;8.286;2023-04-24T06:21:08;5.57;;;3.78;;
62848;SDS011;48941;49.516;8.286;2023-04-24T06:23:36;5.15;;;3.42;;
62848;SDS011;48941;49.516;8.286;2023-04-24T06:26:04;4.38;;;3.60;;
62848;SDS011;48941;49.516;8.286;2023-04-24T06:28:32;4.43;;;3.20;;
62848;SDS011;48941;49.516;8.286;2023-04-24T06:31:00;5.68;;;3.47;;
62848;SDS011;48941;49.516;8.286;2023-04-24T06:33:29;4.28;;;3.00;;
62848;SDS011;48941;49.516;8.286;2023-04-24T06:35:57;3.75;;;2.85;;
62848;SDS011;48941;49.516;8.286;2023-04-24T06:38:25;3.00;;;2.70;;
62848;SDS011;48941;49.516;8.286;2023-04-24T06:40:53;3.10;;;2.70;;
62848;SDS011;48941;49.516;8.286;2023-04-24T06:43:21;4.30;;;2.75;;
62848;SDS011;48941;49.516;8.286;2023-04-24T06:45:49;3.45;;;3.00;;
62848;SDS011;48941;49.516;8.286;2023-04-24T06:48:17;4.13;;;2.55;;
62848;SDS011;48941;49.516;8.286;2023-04-24T06:50:46;4.32;;;2.55;;
62848;SDS011;48941;49.516;8.286;2023-04-24T06:53:14;8.27;;;2.47;;
62848;SDS011;48941;49.516;8.286;2023-04-24T06:55:42;3.25;;;2.70;;
62848;SDS011;48941;49.516;8.286;2023-04-24T06:58:11;2.60;;;2.40;;
62848;SDS011;48941;49.516;8.286;2023-04-24T07:00:38;5.28;;;2.30;;
62848;SDS011;48941;49.516;8.286;2023-04-24T07:03:06;3.97;;;2.33;;
62848;SDS011;48941;49.516;8.286;2023-04-24T07:05:34;3.13;;;2.50;;
62848;SDS011;48941;49.516;8.286;2023-04-24T07:08:05;2.58;;;2.10;;
62848;SDS011;48941;49.516;8.286;2023-04-24T07:10:34;2.80;;;2.28;;
62848;SDS011;48941;49.516;8.286;2023-04-24T07:13:02;4.82;;;2.30;;
62848;SDS011;48941;49.516;8.286;2023-04-24T07:15:30;3.67;;;2.47;;
62848;SDS011;48941;49.516;8.286;2023-04-24T07:17:58;4.65;;;2.40;;
62848;SDS011;48941;49.516;8.286;2023-04-24T07:20:30;5.75;;;2.13;;
62848;SDS011;48941;49.516;8.286;2023-04-24T07:22:58;2.92;;;2.10;;
62848;SDS011;48941;49.516;8.286;2023-04-24T07:25:27;3.10;;;2.17;;
62848;SDS011;48941;49.516;8.286;2023-04-24T07:27:55;2.20;;;2.00;;
62848;SDS011;48941;49.516;8.286;2023-04-24T07:30:23;2.13;;;1.92;;
62848;SDS011;48941;49.516;8.286;2023-04-24T07:32:51;2.38;;;1.98;;
62848;SDS011;48941;49.516;8.286;2023-04-24T07:35:19;4.85;;;1.90;;
62848;SDS011;48941;49.516;8.286;2023-04-24T07:37:47;3.85;;;1.85;;
62848;SDS011;48941;49.516;8.286;2023-04-24T07:40:15;4.57;;;2.10;;
62848;SDS011;48941;49.516;8.286;2023-04-24T07:42:44;7.03;;;2.47;;
62848;SDS011;48941;49.516;8.286;2023-04-24T07:45:14;2.97;;;2.17;;
62848;SDS011;48941;49.516;8.286;2023-04-24T07:47:42;2.22;;;1.88;;
62848;SDS011;48941;49.516;8.286;2023-04-24T07:50:12;4.55;;;2.60;;
62848;SDS011;48941;49.516;8.286;2023-04-24T07:52:39;2.53;;;2.25;;
62848;SDS011;48941;49.516;8.286;2023-04-24T07:55:07;2.47;;;1.92;;
62848;SDS011;48941;49.516;8.286;2023-04-24T07:57:35;2.33;;;2.03;;
62848;SDS011;48941;49.516;8.286;2023-04-24T08:00:06;12.93;;;3.10;;
62848;SDS011;48941;49.516;8.286;2023-04-24T08:02:36;2.15;;;1.92;;
62848;SDS011;48941;49.516;8.286;2023-04-24T08:05:04;3.22;;;1.90;;
62848;SDS011;48941;49.516;8.286;2023-04-24T08:07:33;3.85;;;2.40;;
62848;SDS011;48941;49.516;8.286;2023-04-24T08:10:01;4.40;;;2.10;;
62848;SDS011;48941;49.516;8.286;2023-04-24T08:12:29;3.75;;;2.20;;
62848;SDS011;48941;49.516;8.286;2023-04-24T08:14:57;2.35;;;2.15;;
62848;SDS011;48941;49.516;8.286;2023-04-24T08:17:26;3.25;;;2.38;;
62848;SDS011;48941;49.516;8.286;2023-04-24T08:19:54;11.13;;;2.78;;
62848;SDS011;48941;49.516;8.286;2023-04-24T08:22:27;3.25;;;2.45;;
62848;SDS011;48941;49.516;8.286;2023-04-24T08:24:55;6.43;;;2.40;;
62848;SDS011;48941;49.516;8.286;2023-04-24T08:27:23;2.60;;;2.40;;
62848;SDS011;48941;49.516;8.286;2023-04-24T08:29:52;8.98;;;3.10;;
62848;SDS011;48941;49.516;8.286;2023-04-24T08:32:20;2.97;;;2.42;;
62848;SDS011;48941;49.516;8.286;2023-04-24T08:34:51;4.38;;;2.60;;
62848;SDS011;48941;49.516;8.286;2023-04-24T08:37:18;2.88;;;2.35;;
62848;SDS011;48941;49.516;8.286;2023-04-24T08:39:47;3.70;;;2.47;;
62848;SDS011;48941;49.516;8.286;2023-04-24T08:42:15;2.58;;;2.30;;
62848;SDS011;48941;49.516;8.286;2023-04-24T08:44:44;6.80;;;2.20;;
62848;SDS011;48941;49.516;8.286;2023-04-24T08:47:12;3.30;;;2.50;;
62848;SDS011;48941;49.516;8.286;2023-04-24T08:49:42;2.95;;;2.50;;
62848;SDS011;48941;49.516;8.286;2023-04-24T08:52:13;6.68;;;2.60;;
62848;SDS011;48941;49.516;8.286;2023-04-24T08:54:40;3.30;;;2.35;;
62848;SDS011;48941;49.516;8.286;2023-04-24T08:57:11;22.75;;;4.70;;
62848;SDS011;48941;49.516;8.286;2023-04-24T08:59:41;4.10;;;2.20;;
62848;SDS011;48941;49.516;8.286;2023-04-24T09:02:13;6.75;;;2.50;;
62848;SDS011;48941;49.516;8.286;2023-04-24T09:04:42;2.30;;;2.10;;
62848;SDS011;48941;49.516;8.286;2023-04-24T09:07:12;3.17;;;2.10;;
62848;SDS011;48941;49.516;8.286;2023-04-24T09:12:11;3.65;;;2.30;;
62848;SDS011;48941;49.516;8.286;2023-04-24T09:14:40;3.47;;;2.38;;
62848;SDS011;48941;49.516;8.286;2023-04-24T09:17:11;3.80;;;2.50;;
62848;SDS011;48941;49.516;8.286;2023-04-24T09:19:39;4.55;;;2.30;;
62848;SDS011;48941;49.516;8.286;2023-04-24T09:22:09;7.30;;;2.55;;
62848;SDS011;48941;49.516;8.286;2023-04-24T09:24:39;9.02;;;2.63;;
62848;SDS011;48941;49.516;8.286;2023-04-24T09:27:06;4.25;;;2.50;;
62848;SDS011;48941;49.516;8.286;2023-04-24T09:29:36;5.25;;;2.47;;
62848;SDS011;48941;49.516;8.286;2023-04-24T09:32:17;6.00;;;2.67;;
62848;SDS011;48941;49.516;8.286;2023-04-24T09:34:48;4.13;;;2.72;;
62848;SDS011;48941;49.516;8.286;2023-04-24T09:37:27;3.28;;;2.35;;
62848;SDS011;48941;49.516;8.286;2023-04-24T09:40:11;9.32;;;3.00;;
62848;SDS011;48941;49.516;8.286;2023-04-24T09:42:42;2.80;;;2.40;;
62848;SDS011;48941;49.516;8.286;2023-04-24T09:45:12;2.67;;;2.40;;
62848;SDS011;48941;49.516;8.286;2023-04-24T09:47:41;3.35;;;2.50;;
62848;SDS011;48941;49.516;8.286;2023-04-24T09:50:10;6.05;;;2.58;;
62848;SDS011;48941;49.516;8.286;2023-04-24T09:52:40;2.65;;;2.17;;
62848;SDS011;48941;49.516;8.286;2023-04-24T09:55:16;6.65;;;2.33;;
62848;SDS011;48941;49.516;8.286;2023-04-24T09:57:54;4.63;;;2.10;;
62848;SDS011;48941;49.516;8.286;2023-04-24T10:00:24;6.07;;;2.22;;
62848;SDS011;48941;49.516;8.286;2023-04-24T10:02:54;4.45;;;1.90;;
62848;SDS011;48941;49.516;8.286;2023-04-24T10:05:28;5.13;;;2.30;;
62848;SDS011;48941;49.516;8.286;2023-04-24T10:07:58;7.20;;;2.33;;
62848;SDS011;48941;49.516;8.286;2023-04-24T10:10:30;4.97;;;1.90;;
62848;SDS011;48941;49.516;8.286;2023-04-24T10:12:58;2.33;;;1.92;;
62848;SDS011;48941;49.516;8.286;2023-04-24T10:15:27;3.08;;;2.00;;
62848;SDS011;48941;49.516;8.286;2023-04-24T10:17:55;3.85;;;2.00;;
62848;SDS011;48941;49.516;8.286;2023-04-24T10:20:26;5.80;;;2.13;;
62848;SDS011;48941;49.516;8.286;2023-04-24T10:22:57;3.80;;;2.50;;
62848;SDS011;48941;49.516;8.286;2023-04-24T10:25:26;5.10;;;2.25;;
62848;SDS011;48941;49.516;8.286;2023-04-24T10:27:57;10.13;;;2.70;;
62848;SDS011;48941;49.516;8.286;2023-04-24T10:30:26;6.57;;;2.60;;
62848;SDS011;48941;49.516;8.286;2023-04-24T10:32:55;6.03;;;2.80;;
62848;SDS011;48941;49.516;8.286;2023-04-24T10:35:23;7.97;;;2.40;;
62848;SDS011;48941;49.516;8.286;2023-04-24T10:37:54;7.72;;;2.40;;
62848;SDS011;48941;49.516;8.286;2023-04-24T10:40:26;16.42;;;3.30;;
62848;SDS011;48941;49.516;8.286;2023-04-24T10:42:56;15.73;;;2.85;;
62848;SDS011;48941;49.516;8.286;2023-04-24T10:45:25;7.78;;;2.75;;
62848;SDS011;48941;49.516;8.286;2023-04-24T10:47:54;8.60;;;2.83;;
62848;SDS011;48941;49.516;8.286;2023-04-24T10:50:28;30.40;;;3.30;;
62848;SDS011;48941;49.516;8.286;2023-04-24T10:53:05;4.55;;;2.58;;
62848;SDS011;48941;49.516;8.286;2023-04-24T10:55:40;6.25;;;2.72;;
62848;SDS011;48941;49.516;8.286;2023-04-24T10:58:11;14.43;;;3.10;;
62848;SDS011;48941;49.516;8.286;2023-04-24T11:00:39;16.48;;;2.75;;
62848;SDS011;48941;49.516;8.286;2023-04-24T11:03:13;9.15;;;2.75;;
62848;SDS011;48941;49.516;8.286;2023-04-24T11:05:58;19.70;;;4.10;;
62848;SDS011;48941;49.516;8.286;2023-04-24T11:08:28;7.50;;;2.80;;
62848;SDS011;48941;49.516;8.286;2023-04-24T11:10:58;3.63;;;2.70;;
62848;SDS011;48941;49.516;8.286;2023-04-24T11:14:00;25.65;;;3.20;;
62848;SDS011;48941;49.516;8.286;2023-04-24T11:16:30;10.80;;;3.22;;
62848;SDS011;48941;49.516;8.286;2023-04-24T11:19:01;4.35;;;2.95;;
62848;SDS011;48941;49.516;8.286;2023-04-24T11:21:40;8.38;;;4.60;;
62848;SDS011;48941;49.516;8.286;2023-04-24T11:24:22;9.23;;;3.10;;
62848;SDS011;48941;49.516;8.286;2023-04-24T11:26:55;8.82;;;3.03;;
62848;SDS011;48941;49.516;8.286;2023-04-24T11:29:42;3.13;;;2.60;;
62848;SDS011;48941;49.516;8.286;2023-04-24T11:32:14;6.32;;;3.05;;
62848;SDS011;48941;49.516;8.286;2023-04-24T11:34:47;5.45;;;2.67;;
62848;SDS011;48941;49.516;8.286;2023-04-24T11:37:16;9.45;;;3.25;;
62848;SDS011;48941;49.516;8.286;2023-04-24T11:39:44;30.50;;;4.95;;
62848;SDS011;48941;49.516;8.286;2023-04-24T11:42:13;15.65;;;4.10;;
62848;SDS011;48941;49.516;8.286;2023-04-24T11:44:43;15.98;;;4.43;;
62848;SDS011;48941;49.516;8.286;2023-04-24T11:47:13;5.03;;;3.38;;
62848;SDS011;48941;49.516;8.286;2023-04-24T11:49:41;3.92;;;3.00;;
62848;SDS011;48941;49.516;8.286;2023-04-24T11:52:09;5.68;;;3.38;;
62848;SDS011;48941;49.516;8.286;2023-04-24T11:54:38;17.17;;;4.00;;
62848;SDS011;48941;49.516;8.286;2023-04-24T11:57:13;6.13;;;3.08;;
62848;SDS011;48941;49.516;8.286;2023-04-24T11:59:41;6.43;;;3.17;;
62848;SDS011;48941;49.516;8.286;2023-04-24T12:02:20;13.25;;;3.38;;
62848;SDS011;48941;49.516;8.286;2023-04-24T12:04:49;3.58;;;3.10;;
62848;SDS011;48941;49.516;8.286;2023-04-24T12:07:18;6.03;;;3.10;;
62848;SDS011;48941;49.516;8.286;2023-04-24T12:09:46;5.18;;;2.92;;
62848;SDS011;48941;49.516;8.286;2023-04-24T12:12:18;5.68;;;3.55;;
62848;SDS011;48941;49.516;8.286;2023-04-24T12:14:49;4.05;;;3.45;;
62848;SDS011;48941;49.516;8.286;2023-04-24T12:17:17;9.65;;;3.28;;
62848;SDS011;48941;49.516;8.286;2023-04-24T12:19:58;14.57;;;3.35;;
62848;SDS011;48941;49.516;8.286;2023-04-24T12:22:27;8.68;;;3.10;;
62848;SDS011;48941;49.516;8.286;2023-04-24T12:24:56;6.20;;;3.20;;
62848;SDS011;48941;49.516;8.286;2023-04-24T12:27:25;6.57;;;3.15;;
62848;SDS011;48941;49.516;8.286;2023-04-24T12:29:53;5.18;;;3.47;;
62848;SDS011;48941;49.516;8.286;2023-04-24T12:32:22;13.65;;;3.67;;
62848;SDS011;48941;49.516;8.286;2023-04-24T12:34:53;10.98;;;3.40;;
62848;SDS011;48941;49.516;8.286;2023-04-24T12:37:24;8.00;;;3.00;;
62848;SDS011;48941;49.516;8.286;2023-04-24T12:39:59;3.75;;;2.88;;
62848;SDS011;48941;49.516;8.286;2023-04-24T12:42:33;11.60;;;3.30;;
62848;SDS011;48941;49.516;8.286;2023-04-24T12:45:02;5.22;;;3.20;;
62848;SDS011;48941;49.516;8.286;2023-04-24T12:47:32;12.63;;;3.97;;
62848;SDS011;48941;49.516;8.286;2023-04-24T12:50:00;9.02;;;3.63;;
62848;SDS011;48941;49.516;8.286;2023-04-24T12:52:30;8.63;;;3.10;;
62848;SDS011;48941;49.516;8.286;2023-04-24T12:54:58;14.77;;;4.05;;
62848;SDS011;48941;49.516;8.286;2023-04-24T12:57:28;3.88;;;3.10;;
62848;SDS011;48941;49.516;8.286;2023-04-24T12:59:57;11.52;;;3.05;;
62848;SDS011;48941;49.516;8.286;2023-04-24T13:02:26;4.20;;;2.90;;
62848;SDS011;48941;49.516;8.286;2023-04-24T13:04:57;5.72;;;2.70;;
62848;SDS011;48941;49.516;8.286;2023-04-24T13:07:26;9.02;;;3.00;;
62848;SDS011;48941;49.516;8.286;2023-04-24T13:09:55;4.47;;;2.95;;
62848;SDS011;48941;49.516;8.286;2023-04-24T13:12:24;13.80;;;3.38;;
62848;SDS011;48941;49.516;8.286;2023-04-24T13:14:52;4.50;;;3.20;;
62848;SDS011;48941;49.516;8.286;2023-04-24T13:17:21;6.32;;;3.03;;
62848;SDS011;48941;49.516;8.286;2023-04-24T13:19:49;6.55;;;3.08;;
62848;SDS011;48941;49.516;8.286;2023-04-24T13:22:18;9.57;;;3.10;;
62848;SDS011;48941;49.516;8.286;2023-04-24T13:24:46;8.90;;;2.97;;
62848;SDS011;48941;49.516;8.286;2023-04-24T13:27:17;4.78;;;3.42;;
62848;SDS011;48941;49.516;8.286;2023-04-24T13:29:45;6.35;;;3.03;;
62848;SDS011;48941;49.516;8.286;2023-04-24T13:32:13;4.07;;;3.05;;
62848;SDS011;48941;49.516;8.286;2023-04-24T13:34:41;5.35;;;3.35;;
62848;SDS011;48941;49.516;8.286;2023-04-24T13:37:08;6.13;;;3.35;;
62848;SDS011;48941;49.516;8.286;2023-04-24T13:39:36;8.63;;;3.53;;
62848;SDS011;48941;49.516;8.286;2023-04-24T13:42:04;5.78;;;2.85;;
62848;SDS011;48941;49.516;8.286;2023-04-24T13:44:33;4.47;;;3.10;;
62848;SDS011;48941;49.516;8.286;2023-04-24T13:47:01;4.07;;;3.17;;
62848;SDS011;48941;49.516;8.286;2023-04-24T13:49:29;4.13;;;3.20;;
62848;SDS011;48941;49.516;8.286;2023-04-24T13:51:56;3.58;;;2.80;;
62848;SDS011;48941;49.516;8.286;2023-04-24T13:54:24;5.38;;;3.50;;
62848;SDS011;48941;49.516;8.286;2023-04-24T13:56:52;5.38;;;3.22;;
62848;SDS011;48941;49.516;8.286;2023-04-24T13:59:20;6.80;;;4.10;;
62848;SDS011;48941;49.516;8.286;2023-04-24T14:01:49;5.25;;;3.33;;
62848;SDS011;48941;49.516;8.286;2023-04-24T14:04:17;11.95;;;3.20;;
62848;SDS011;48941;49.516;8.286;2023-04-24T14:06:45;7.82;;;3.08;;
62848;SDS011;48941;49.516;8.286;2023-04-24T14:09:13;3.67;;;2.60;;
62848;SDS011;48941;49.516;8.286;2023-04-24T14:11:41;4.50;;;2.58;;
62848;SDS011;48941;49.516;8.286;2023-04-24T14:14:09;3.13;;;2.33;;
62848;SDS011;48941;49.516;8.286;2023-04-24T14:16:37;3.10;;;2.70;;
62848;SDS011;48941;49.516;8.286;2023-04-24T14:19:07;5.32;;;2.85;;
62848;SDS011;48941;49.516;8.286;2023-04-24T14:21:35;5.00;;;2.85;;
62848;SDS011;48941;49.516;8.286;2023-04-24T14:24:02;3.33;;;2.60;;
62848;SDS011;48941;49.516;8.286;2023-04-24T14:26:30;3.45;;;2.90;;
62848;SDS011;48941;49.516;8.286;2023-04-24T14:28:58;4.70;;;2.83;;
62848;SDS011;48941;49.516;8.286;2023-04-24T14:31:39;7.35;;;3.15;;
62848;SDS011;48941;49.516;8.286;2023-04-24T14:34:09;5.55;;;3.40;;
62848;SDS011;48941;49.516;8.286;2023-04-24T14:36:37;5.90;;;2.90;;
62848;SDS011;48941;49.516;8.286;2023-04-24T14:39:05;8.50;;;3.10;;
62848;SDS011;48941;49.516;8.286;2023-04-24T14:41:34;4.97;;;3.42;;
62848;SDS011;48941;49.516;8.286;2023-04-24T14:44:03;4.22;;;3.15;;
62848;SDS011;48941;49.516;8.286;2023-04-24T14:46:31;5.20;;;2.72;;
62848;SDS011;48941;49.516;8.286;2023-04-24T14:48:59;3.30;;;2.75;;
62848;SDS011;48941;49.516;8.286;2023-04-24T14:51:28;5.20;;;3.92;;
62848;SDS011;48941;49.516;8.286;2023-04-24T14:53:56;6.88;;;4.20;;
62848;SDS011;48941;49.516;8.286;2023-04-24T14:56:24;8.02;;;3.70;;
62848;SDS011;48941;49.516;8.286;2023-04-24T14:58:52;5.47;;;3.63;;
62848;SDS011;48941;49.516;8.286;2023-04-24T15:01:20;3.72;;;3.20;;